Time;durP1;ratioP1;P1;durP2;ratioP2;P2;SDS_P1;SDS_P2;PMS_P1;PMS_P2;Temp;Humidity;BMP_temperature;BMP_pressure;BME280_temperature;BME280_humidity;BME280_pressure;Samples;Min_cycle;Max_cycle;Signal;HPM_P1;HPM_P2
2022/06/10 00:01:08;;;;;;;6.10;3.37;;;;;;;13.72;78.39;101270.75;5115317;28;20046;-63
2022/06/10 00:03:35;;;;;;;4.80;3.27;;;;;;;13.68;78.64;101269.41;5116329;28;20036;-63
2022/06/10 00:06:04;;;;;;;6.70;3.23;;;;;;;13.66;78.55;101263.41;5115350;27;20027;-64
2022/06/10 00:08:34;;;;;;;4.13;3.20;;;;;;;13.61;79.06;101261.25;5115249;28;20082;-65
2022/06/10 00:11:02;;;;;;;4.40;2.97;;;;;;;13.63;79.32;101267.25;5115067;28;20043;-61
2022/06/10 00:13:29;;;;;;;5.93;3.13;;;;;;;13.68;79.64;101277.44;5115182;28;20047;-62
2022/06/10 00:15:55;;;;;;;7.73;3.10;;;;;;;13.67;79.87;101273.94;5115034;28;20046;-65
2022/06/10 00:18:22;;;;;;;4.63;3.43;;;;;;;13.65;80.12;101275.94;5114525;28;20031;-62
2022/06/10 00:20:48;;;;;;;6.77;4.37;;;;;;;13.61;80.52;101274.63;5113454;28;20055;-60
2022/06/10 00:23:14;;;;;;;4.30;3.33;;;;;;;13.63;80.70;101277.97;5114769;28;20066;-63
2022/06/10 00:25:40;;;;;;;3.90;3.40;;;;;;;13.61;80.95;101279.97;5114611;28;20078;-64
2022/06/10 00:28:07;;;;;;;4.37;3.50;;;;;;;13.58;81.30;101280.28;5114862;28;20042;-63
2022/06/10 00:30:35;;;;;;;4.60;3.80;;;;;;;13.58;81.54;101280.28;5114577;28;20231;-62
2022/06/10 00:33:01;;;;;;;;;;;;;;;13.61;80.92;101279.97;5115225;28;20035;-63
2022/06/10 00:35:28;;;;;;;5.80;3.57;;;;;;;13.54;81.73;101281.63;5114790;27;19926;-62
2022/06/10 00:37:54;;;;;;;3.60;3.23;;;;;;;13.50;82.26;101281.13;5114670;28;20031;-62
2022/06/10 00:40:31;;;;;;;6.87;4.33;;;;;;;13.52;82.15;101286.31;5114187;28;20039;-66
2022/06/10 00:42:56;;;;;;;8.30;3.90;;;;;;;13.48;82.51;101285.81;5114470;27;20035;-64
2022/06/10 00:45:50;;;;;;;4.40;3.87;;;;;;;13.48;82.75;101285.00;5114530;28;20043;-63
2022/06/10 00:48:19;;;;;;;4.70;4.23;;;;;;;13.43;82.98;101280.16;5115267;28;20035;-63
2022/06/10 00:50:46;;;;;;;6.20;4.47;;;;;;;13.43;83.07;101282.00;5114860;27;20164;-62
2022/06/10 00:53:15;;;;;;;6.43;4.80;;;;;;;13.45;83.16;101285.31;5116028;28;20425;-62
2022/06/10 00:55:44;;;;;;;10.90;6.57;;;;;;;13.45;83.08;101285.31;5115022;28;20448;-61
2022/06/10 00:58:40;;;;;;;6.23;5.23;;;;;;;13.48;82.98;101290.34;5114101;28;20502;-62
2022/06/10 01:01:07;;;;;;;7.00;5.30;;;;;;;13.44;83.02;101295.19;5109170;28;20384;-61
2022/06/10 01:03:33;;;;;;;7.33;6.50;;;;;;;13.44;83.27;101289.00;5114373;28;20126;-62
2022/06/10 01:05:58;;;;;;;9.20;6.17;;;;;;;13.43;83.35;101293.53;5113779;28;20210;-62
2022/06/10 01:08:24;;;;;;;6.20;5.40;;;;;;;13.35;83.63;101279.31;5113804;28;20112;-63
2022/06/10 01:11:18;;;;;;;10.17;6.20;;;;;;;13.41;83.98;101294.69;5113905;28;20123;-62
2022/06/10 01:13:50;;;;;;;9.37;6.93;;;;;;;13.37;83.97;101294.19;5114202;28;20510;-63
2022/06/10 01:16:39;;;;;;;10.80;6.10;;;;;;;13.35;84.35;101295.38;5113847;28;20039;-62
2022/06/10 01:19:59;;;;;;;11.30;6.93;;;;;;;13.33;84.24;101299.06;5114226;28;20054;-62
2022/06/10 01:23:19;;;;;;;7.50;6.23;;;;;;;13.33;84.33;101293.72;5112963;28;20559;-62
2022/06/10 01:26:03;;;;;;;10.57;6.80;;;;;;;13.35;84.53;101295.38;5099961;28;20079;-63
2022/06/10 01:28:50;;;;;;;8.40;7.20;;;;;;;13.39;84.64;101302.91;5113582;28;20028;-63
2022/06/10 01:31:23;;;;;;;8.67;7.57;;;;;;;13.46;84.46;101300.38;5113663;28;20031;-61
2022/06/10 01:34:15;;;;;;;9.23;8.23;;;;;;;13.53;84.18;101301.38;5113324;28;20475;-63
2022/06/10 01:36:47;;;;;;;9.63;7.73;;;;;;;13.56;84.00;101296.50;5113380;28;20028;-60
2022/06/10 01:39:15;;;;;;;13.90;8.27;;;;;;;13.58;84.08;101297.19;5113133;28;20031;-63
2022/06/10 01:41:40;;;;;;;12.32;8.63;;;;;;;13.58;84.35;101301.69;5113079;28;20405;-62
2022/06/10 01:44:06;;;;;;;9.87;8.73;;;;;;;13.61;84.25;101307.56;5113353;28;20047;-64
2022/06/10 01:46:37;;;;;;;13.43;8.83;;;;;;;13.58;84.23;101301.69;5113211;28;20039;-62
2022/06/10 01:49:11;;;;;;;11.63;8.67;;;;;;;13.60;84.31;101305.06;5113245;27;20106;-62
2022/06/10 01:51:45;;;;;;;11.40;8.90;;;;;;;13.63;84.74;101307.41;5113069;27;20044;-63
2022/06/10 01:54:31;;;;;;;11.10;9.33;;;;;;;13.53;84.57;101286.16;5112870;28;20039;-65
2022/06/10 01:57:05;;;;;;;12.00;9.67;;;;;;;13.63;84.93;101307.41;5113200;27;20031;-61
2022/06/10 01:59:47;;;;;;;11.93;10.03;;;;;;;13.64;84.75;101311.75;5113039;28;20039;-66
2022/06/10 02:02:21;;;;;;;11.97;9.83;;;;;;;13.73;84.64;101321.44;5111710;28;20050;-62
2022/06/10 02:04:51;;;;;;;11.10;9.87;;;;;;;13.82;84.66;101319.56;5113143;28;20035;-62
2022/06/10 02:07:23;;;;;;;16.73;10.13;;;;;;;13.87;84.63;101319.88;5112785;28;20032;-61
2022/06/10 02:10:00;;;;;;;15.93;10.43;;;;;;;13.88;84.20;101311.72;5112873;28;20097;-62
2022/06/10 02:12:39;;;;;;;12.73;8.83;;;;;;;13.98;83.72;101321.38;5112654;28;20031;-66
2022/06/10 02:15:13;;;;;;;10.60;9.43;;;;;;;14.12;83.70;101332.22;5112765;28;20122;-62
2022/06/10 02:17:45;;;;;;;9.83;8.07;;;;;;;14.16;83.56;101335.38;5112419;28;20041;-63
2022/06/10 02:20:24;;;;;;;15.43;8.63;;;;;;;14.12;83.24;101323.34;5112603;28;20085;-62
2022/06/10 02:22:52;;;;;;;10.35;8.23;;;;;;;14.17;83.25;101339.75;5112679;28;20071;-63
2022/06/10 02:25:23;;;;;;;11.20;7.65;;;;;;;14.28;82.91;101334.03;5111160;28;20508;-64
2022/06/10 02:28:07;;;;;;;10.70;8.20;;;;;;;14.40;82.54;101337.97;5112594;28;20035;-63
2022/06/10 02:30:42;;;;;;;10.53;8.33;;;;;;;14.38;82.33;101321.25;5111317;28;20116;-62
2022/06/10 02:33:08;;;;;;;11.80;9.33;;;;;;;14.48;82.42;101340.69;5112506;28;20496;-62
2022/06/10 02:35:49;;;;;;;10.93;9.80;;;;;;;14.44;83.02;101338.50;5113924;28;20043;-60
2022/06/10 02:38:35;;;;;;;15.43;10.03;;;;;;;14.49;82.91;101331.63;5113421;28;20126;-63
2022/06/10 02:41:17;;;;;;;13.17;10.13;;;;;;;14.54;82.49;101337.31;5112415;28;20348;-65
2022/06/10 02:43:51;;;;;;;14.00;10.73;;;;;;;14.62;82.27;101332.91;5112352;28;20036;-62
2022/06/10 02:46:24;;;;;;;16.83;10.27;;;;;;;14.67;82.57;101333.22;5111930;28;20035;-64
2022/06/10 02:49:02;;;;;;;11.77;10.50;;;;;;;14.76;81.95;101330.34;5112548;28;20058;-62
2022/06/10 02:51:32;;;;;;;13.90;10.07;;;;;;;15.01;81.08;101330.16;5112465;28;20035;-64
2022/06/10 02:53:59;;;;;;;12.60;9.17;;;;;;;15.07;80.76;101329.47;5112137;28;20261;-65
2022/06/10 02:56:27;;;;;;;16.07;10.57;;;;;;;15.12;80.53;101335.97;5112090;28;20038;-63
2022/06/10 03:01:45;;;;;;;12.60;9.60;;;;;;;15.52;78.80;101349.25;5112105;28;20483;-63
2022/06/10 03:04:29;;;;;;;10.60;9.20;;;;;;;15.56;78.78;101351.38;5112096;28;20036;-62
2022/06/10 03:07:13;;;;;;;11.40;8.03;;;;;;;15.65;78.30;101358.41;5113983;28;20036;-65
2022/06/10 03:10:04;;;;;;;9.37;8.40;;;;;;;16.19;77.02;101350.16;5112422;28;20372;-64
2022/06/10 03:12:48;;;;;;;11.73;8.37;;;;;;;16.46;75.08;101353.19;5112080;28;20036;-65
2022/06/10 03:15:18;;;;;;;10.50;7.37;;;;;;;16.28;75.28;101358.94;5111912;28;20050;-63
2022/06/10 03:17:52;;;;;;;10.37;8.77;;;;;;;16.05;76.00;101356.34;5111961;28;20130;-66
2022/06/10 03:20:27;;;;;;;13.40;8.00;;;;;;;15.84;76.73;101353.53;5094241;28;20387;-64
2022/06/10 03:23:01;;;;;;;11.23;8.93;;;;;;;16.75;74.38;101363.94;5112280;28;20050;-62
2022/06/10 03:25:42;;;;;;;10.40;8.10;;;;;;;19.06;66.56;101364.88;5112428;28;20046;-63
2022/06/10 03:28:35;;;;;;;7.77;6.87;;;;;;;21.47;58.41;101362.16;5112742;28;20031;-63
2022/06/10 03:31:13;;;;;;;6.70;6.00;;;;;;;22.68;54.88;101358.88;5116154;28;20069;-62
2022/06/10 03:33:53;;;;;;;6.45;5.43;;;;;;;23.44;52.39;101357.44;5116240;28;20402;-62
2022/06/10 03:36:23;;;;;;;6.85;5.20;;;;;;;24.14;50.35;101367.56;5120230;28;20093;-65
2022/06/10 03:38:51;;;;;;;8.43;5.90;;;;;;;24.56;48.70;101366.34;5117522;28;20032;-62
2022/06/10 03:41:30;;;;;;;5.65;5.15;;;;;;;24.73;49.26;101371.03;5115588;28;20480;-63
2022/06/10 03:43:58;;;;;;;8.70;6.22;;;;;;;24.70;47.84;101356.84;5116723;28;20031;-62
2022/06/10 03:46:30;;;;;;;6.63;6.05;;;;;;;25.07;47.27;101366.56;5117715;28;20036;-65
2022/06/10 03:48:58;;;;;;;11.70;5.70;;;;;;;24.78;46.98;101371.97;5115836;28;20031;-62
2022/06/10 03:51:24;;;;;;;9.65;6.05;;;;;;;23.90;49.57;101380.34;5117131;28;20106;-62
2022/06/10 03:53:49;;;;;;;8.02;6.30;;;;;;;22.54;52.80;101382.63;5114496;28;20047;-65
2022/06/10 03:56:25;;;;;;;13.95;7.00;;;;;;;21.30;56.70;101375.38;5116766;28;20035;-62
2022/06/10 03:58:51;;;;;;;9.57;6.95;;;;;;;20.39;59.14;101382.81;5116048;28;20089;-62
2022/06/10 04:01:17;;;;;;;12.10;6.97;;;;;;;20.98;57.87;101369.09;5114974;28;20509;-63
2022/06/10 04:03:43;;;;;;;18.38;6.13;;;;;;;21.93;54.69;101383.44;5114073;28;20046;-61
2022/06/10 04:06:10;;;;;;;8.95;6.32;;;;;;;22.64;52.71;101375.84;5115403;28;20032;-64
2022/06/10 04:08:36;;;;;;;7.28;6.20;;;;;;;23.33;50.85;101378.06;5115289;28;20061;-63
2022/06/10 04:11:01;;;;;;;12.25;6.00;;;;;;;23.88;49.37;101374.31;5114981;28;20439;-63
2022/06/10 04:13:27;;;;;;;11.75;4.95;;;;;;;24.35;48.03;101375.97;5114803;28;20040;-64
2022/06/10 04:15:52;;;;;;;9.65;6.15;;;;;;;24.47;47.85;101384.13;5115203;28;20061;-62
2022/06/10 04:18:17;;;;;;;7.63;5.47;;;;;;;24.21;48.25;101388.13;5113841;28;20040;-65
2022/06/10 04:20:44;;;;;;;7.65;5.47;;;;;;;24.09;48.28;101388.16;5115174;28;20141;-70
2022/06/10 04:23:10;;;;;;;6.05;5.30;;;;;;;23.95;49.01;101391.31;5115318;28;20073;-63
2022/06/10 04:25:37;;;;;;;5.95;5.07;;;;;;;24.08;48.92;101391.13;5113960;28;20110;-64
2022/06/10 04:28:04;;;;;;;11.48;6.05;;;;;;;24.28;47.72;101388.88;5114758;28;20068;-66
2022/06/10 04:30:33;;;;;;;5.43;4.93;;;;;;;24.13;48.09;101377.63;5113499;28;20159;-63
2022/06/10 04:32:59;;;;;;;6.45;5.05;;;;;;;23.92;48.92;101391.81;5114481;28;20512;-63
2022/06/10 04:35:26;;;;;;;11.18;5.72;;;;;;;23.82;49.49;101388.84;5114634;27;20390;-63
2022/06/10 04:37:58;;;;;;;6.95;5.57;;;;;;;24.13;48.54;101388.50;5114848;28;20525;-63
2022/06/10 04:40:27;;;;;;;7.13;4.88;;;;;;;24.09;48.16;101390.06;5114556;28;20078;-64
2022/06/10 04:42:54;;;;;;;6.20;4.75;;;;;;;24.17;48.20;101384.25;5113556;28;20046;-63
2022/06/10 04:45:22;;;;;;;6.70;4.95;;;;;;;24.58;47.46;101385.19;5114401;28;20036;-62
2022/06/10 04:47:48;;;;;;;7.45;5.85;;;;;;;24.77;46.72;101386.66;5114476;28;20039;-64
2022/06/10 04:50:15;;;;;;;6.05;4.60;;;;;;;24.85;46.73;101386.25;5114241;28;20040;-63
2022/06/10 04:52:41;;;;;;;7.00;5.40;;;;;;;25.04;45.95;101392.41;5113252;28;20045;-63
2022/06/10 04:55:08;;;;;;;7.43;5.00;;;;;;;25.05;46.41;101385.88;5114236;28;20028;-63
2022/06/10 04:57:35;;;;;;;5.85;4.40;;;;;;;25.12;46.04;101393.91;5114149;28;20045;-64
2022/06/10 05:00:02;;;;;;;5.93;4.80;;;;;;;25.21;45.17;101406.09;5114115;28;20035;-63
2022/06/10 05:02:28;;;;;;;9.05;4.82;;;;;;;24.70;46.46;101410.47;5112694;28;20451;-61
2022/06/10 05:04:54;;;;;;;6.72;4.63;;;;;;;24.64;47.00;101397.84;5112717;28;20057;-65
2022/06/10 05:07:19;;;;;;;8.45;4.18;;;;;;;24.95;46.65;101405.56;5114132;28;20061;-62
2022/06/10 05:09:45;;;;;;;7.13;4.50;;;;;;;25.14;46.00;101417.09;5113621;28;20077;-66
2022/06/10 05:12:10;;;;;;;6.57;4.78;;;;;;;24.98;45.91;101412.41;5113811;28;20148;-64
2022/06/10 05:14:36;;;;;;;7.03;4.00;;;;;;;24.83;46.56;101421.09;5113792;28;20414;-63
2022/06/10 05:17:03;;;;;;;4.63;3.63;;;;;;;24.14;47.89;101411.09;5113562;28;20038;-63
2022/06/10 05:19:31;;;;;;;5.07;4.22;;;;;;;23.96;48.68;101422.91;5113327;28;20031;-68
2022/06/10 05:21:57;;;;;;;5.88;4.00;;;;;;;23.81;48.77;101430.72;5113654;28;20048;-62
2022/06/10 05:24:23;;;;;;;6.72;3.60;;;;;;;23.26;50.54;101426.25;5113103;28;20456;-64
2022/06/10 05:26:49;;;;;;;6.47;4.28;;;;;;;22.29;53.40;101430.75;5113792;28;20035;-60
2022/06/10 05:29:15;;;;;;;6.20;4.07;;;;;;;21.01;56.83;101424.69;5113556;28;20050;-60
2022/06/10 05:31:41;;;;;;;9.85;4.40;;;;;;;20.45;58.97;101432.56;5111992;28;20032;-61
2022/06/10 05:36:50;;;;;;;9.57;5.60;;;;;;;19.65;62.31;101446.06;5112825;27;20069;-63
2022/06/10 05:39:16;;;;;;;17.42;5.78;;;;;;;19.54;62.87;101445.84;5113010;28;20127;-62
2022/06/10 05:55:15;;;;;;;10.32;5.57;;;;;;;18.87;66.53;101474.47;5160579;22;20404;-77
2022/06/10 05:57:42;;;;;;;6.53;5.72;;;;;;;18.84;65.78;101475.69;4992590;28;20138;-74
2022/06/10 06:00:13;;;;;;;10.43;6.35;;;;;;;18.72;66.49;101462.94;4976091;28;20648;-73
2022/06/10 06:02:40;;;;;;;12.73;6.25;;;;;;;18.71;66.64;101466.69;4994307;28;20042;-73
2022/06/10 06:05:07;;;;;;;8.38;5.20;;;;;;;18.68;67.07;101469.78;4993119;28;20455;-75
2022/06/10 06:07:32;;;;;;;17.92;6.50;;;;;;;18.35;67.16;101442.56;4992929;28;20046;-72
2022/06/10 06:09:58;;;;;;;13.10;6.05;;;;;;;18.43;67.15;101466.69;4993282;28;20045;-68
2022/06/10 06:12:24;;;;;;;8.60;6.00;;;;;;;18.40;67.72;101473.31;4993026;28;20037;-69
2022/06/10 06:14:50;;;;;;;6.47;5.63;;;;;;;18.30;68.00;101470.13;4992916;28;20479;-68
2022/06/10 06:17:16;;;;;;;8.27;5.45;;;;;;;18.34;68.11;101484.88;4992723;28;20031;-68
2022/06/10 06:19:42;;;;;;;8.63;5.68;;;;;;;18.38;68.21;101488.00;4992527;28;20132;-72
2022/06/10 06:22:08;;;;;;;8.40;5.68;;;;;;;18.37;67.64;101489.88;4992766;28;20436;-71
2022/06/10 06:24:38;;;;;;;12.57;5.57;;;;;;;18.39;67.68;101495.06;4992839;28;20051;-67
2022/06/10 06:27:05;;;;;;;8.50;6.53;;;;;;;18.33;68.29;101490.47;4991630;28;20042;-69
2022/06/10 06:29:31;;;;;;;7.63;5.43;;;;;;;18.36;69.13;101498.16;4992629;28;20064;-68
2022/06/10 06:31:57;;;;;;;11.90;5.32;;;;;;;18.22;68.03;101492.69;4993107;28;20662;-69
2022/06/10 06:34:24;;;;;;;12.57;5.32;;;;;;;18.20;68.19;101502.78;4992834;28;20394;-68
2022/06/10 06:36:53;;;;;;;12.18;5.20;;;;;;;18.29;69.34;101505.38;4992871;28;20069;-68
2022/06/10 06:39:20;;;;;;;9.07;5.25;;;;;;;18.31;68.99;101504.16;4992918;28;20072;-69
2022/06/10 06:41:46;;;;;;;10.30;6.70;;;;;;;18.27;68.68;101495.63;4992852;28;20093;-69
2022/06/10 06:44:13;;;;;;;8.63;5.40;;;;;;;18.43;68.38;101507.13;4992708;28;20065;-69
2022/06/10 06:46:41;;;;;;;8.20;5.53;;;;;;;18.41;68.07;101501.09;4992598;28;20030;-70
2022/06/10 06:49:11;;;;;;;6.72;4.60;;;;;;;18.36;69.27;101504.41;4992793;28;20038;-68
2022/06/10 06:51:38;;;;;;;10.05;5.50;;;;;;;18.36;68.26;101501.69;4992802;28;20049;-70
2022/06/10 06:54:04;;;;;;;8.18;4.72;;;;;;;18.38;68.57;101493.41;4991351;28;20062;-67
2022/06/10 06:56:31;;;;;;;12.98;5.60;;;;;;;18.37;68.52;101491.75;4992427;28;20137;-70
2022/06/10 06:58:56;;;;;;;8.02;5.20;;;;;;;18.37;68.91;101486.34;4992792;28;20045;-74
2022/06/10 07:01:22;;;;;;;7.95;5.18;;;;;;;18.51;68.31;101496.22;4991087;28;20463;-70
2022/06/10 07:03:48;;;;;;;10.73;4.75;;;;;;;18.43;68.39;101491.78;4993050;28;20485;-70
2022/06/10 07:06:14;;;;;;;4.88;3.90;;;;;;;18.36;67.22;101473.91;4996355;28;20042;-71
2022/06/10 07:08:40;;;;;;;4.85;4.07;;;;;;;18.49;67.08;101490.16;4996745;28;20105;-70
2022/06/10 07:11:07;;;;;;;4.50;3.80;;;;;;;18.27;66.86;101459.72;4997214;28;20489;-69
2022/06/10 07:13:33;;;;;;;4.53;4.03;;;;;;;18.52;66.16;101490.63;4996412;28;20085;-69
2022/06/10 07:16:01;;;;;;;8.02;3.45;;;;;;;18.60;65.86;101480.69;4995830;28;20413;-68
2022/06/10 07:18:28;;;;;;;7.43;3.63;;;;;;;18.65;64.54;101487.19;4996469;28;20114;-70
2022/06/10 07:20:53;;;;;;;7.97;3.15;;;;;;;18.58;64.67;101479.03;4996404;28;20100;-74
2022/06/10 07:23:19;;;;;;;3.45;2.95;;;;;;;18.16;63.87;101420.66;4996683;28;20081;-70
2022/06/10 07:25:46;;;;;;;5.40;3.20;;;;;;;18.57;63.84;101500.81;4996791;28;20035;-68
2022/06/10 07:28:13;;;;;;;4.30;3.15;;;;;;;18.58;63.43;101491.69;4996527;28;20042;-72
2022/06/10 07:30:40;;;;;;;5.32;3.58;;;;;;;18.57;63.56;101481.94;4996814;28;20081;-71
2022/06/10 07:33:06;;;;;;;10.02;3.38;;;;;;;18.57;63.63;101479.25;4996908;28;20042;-67
2022/06/10 07:35:31;;;;;;;3.08;2.78;;;;;;;18.53;63.41;101491.47;4996769;28;20405;-70
2022/06/10 07:37:58;;;;;;;6.15;3.40;;;;;;;18.45;63.43;101503.22;4995837;28;20084;-70
2022/06/10 07:43:11;;;;;;;5.68;2.85;;;;;;;18.48;64.18;101500.13;4996106;28;20117;-64
2022/06/10 07:45:37;;;;;;;4.85;3.00;;;;;;;18.52;64.30;101505.97;4995532;28;20128;-62
2022/06/10 07:48:03;;;;;;;5.82;4.13;;;;;;;18.63;63.63;101510.00;4995575;28;20039;-60
2022/06/10 07:50:29;;;;;;;3.33;2.60;;;;;;;18.75;63.20;101503.84;4995678;28;20046;-66
2022/06/10 07:52:55;;;;;;;10.98;3.42;;;;;;;18.71;63.50;101510.69;4995737;28;20547;-67
2022/06/10 07:55:22;;;;;;;3.90;2.85;;;;;;;18.78;63.11;101516.13;4995242;28;20472;-66
2022/06/10 07:57:48;;;;;;;3.23;2.93;;;;;;;18.75;62.72;101495.75;4995570;28;20534;-67
2022/06/10 08:00:14;;;;;;;7.40;2.78;;;;;;;18.79;62.26;101502.44;4995275;28;20341;-62
2022/06/10 08:02:40;;;;;;;3.08;2.55;;;;;;;18.70;62.84;101470.41;4995467;28;20038;-69
2022/06/10 08:05:11;;;;;;;8.23;2.75;;;;;;;19.00;61.16;101500.69;4994186;28;20041;-65
2022/06/10 08:07:39;;;;;;;4.55;2.75;;;;;;;19.05;61.32;101501.72;4993992;28;20085;-62
2022/06/10 08:10:08;;;;;;;2.65;2.08;;;;;;;19.18;61.38;101518.00;4995196;28;20038;-61
2022/06/10 08:12:34;;;;;;;3.20;2.83;;;;;;;19.27;60.25;101513.25;4995502;28;20042;-63
2022/06/10 08:14:59;;;;;;;4.70;2.45;;;;;;;19.19;60.50;101497.25;4995120;28;20030;-63
2022/06/10 08:17:25;;;;;;;4.82;2.70;;;;;;;19.26;60.50;101490.00;4993964;28;20034;-62
2022/06/10 08:19:50;;;;;;;6.45;2.63;;;;;;;19.45;60.32;101508.16;4995018;28;20077;-62
2022/06/10 08:22:35;;;;;;;2.75;2.45;;;;;;;19.58;59.36;101501.16;4994838;28;20034;-66
2022/06/10 08:25:05;;;;;;;3.30;2.53;;;;;;;19.73;59.06;101512.63;4995068;28;20081;-63
2022/06/10 08:27:30;;;;;;;5.80;2.95;;;;;;;19.86;58.35;101504.53;4995008;28;20405;-64
2022/06/10 08:29:57;;;;;;;4.93;2.88;;;;;;;20.04;58.29;101515.59;4993637;28;20038;-62
2022/06/10 08:32:24;;;;;;;2.78;2.38;;;;;;;20.22;57.13;101514.13;4994726;28;20133;-67
2022/06/10 08:34:50;;;;;;;2.28;1.88;;;;;;;20.29;56.98;101475.25;4994740;28;20068;-67
2022/06/10 08:37:16;;;;;;;3.05;2.25;;;;;;;20.73;56.98;101517.88;4994827;28;20092;-67
2022/06/10 08:39:41;;;;;;;2.85;2.30;;;;;;;20.83;56.85;101495.78;4994144;28;20038;-66
2022/06/10 08:42:48;;;;;;;3.65;2.50;;;;;;;20.87;56.55;101499.72;4994727;28;20505;-71
2022/06/10 08:45:34;;;;;;;4.15;2.28;;;;;;;20.69;57.24;101477.91;4993397;28;20050;-63
2022/06/10 08:48:48;;;;;;;5.55;2.22;;;;;;;21.00;56.69;101515.09;4994697;28;20050;-65
2022/06/10 08:51:33;;;;;;;4.57;2.80;;;;;;;21.14;56.39;101518.59;4975365;28;20416;-69
2022/06/10 08:54:10;;;;;;;3.10;2.40;;;;;;;21.19;55.45;101506.09;4994480;28;20050;-62
2022/06/10 08:56:40;;;;;;;2.38;1.92;;;;;;;21.14;55.13;101507.78;4994109;28;20456;-68
2022/06/10 08:59:08;;;;;;;3.78;2.13;;;;;;;21.20;54.85;101523.16;4994453;28;20038;-63
2022/06/10 09:02:04;;;;;;;6.43;2.45;;;;;;;21.30;54.69;101524.41;4994091;28;20064;-64
2022/06/10 09:04:54;;;;;;;4.45;1.90;;;;;;;21.25;55.08;101529.63;4993382;28;20030;-62
2022/06/10 09:07:36;;;;;;;5.30;2.22;;;;;;;21.22;54.76;101515.66;4994302;28;20062;-72
2022/06/10 09:10:07;;;;;;;2.75;2.03;;;;;;;21.27;55.00;101513.16;4994131;28;20121;-68
2022/06/10 09:12:58;;;;;;;6.38;2.30;;;;;;;21.44;54.16;101529.78;4993801;28;20041;-73
2022/06/10 09:15:25;;;;;;;6.18;2.42;;;;;;;21.29;53.98;101524.59;4986498;28;20047;-71
2022/06/10 09:18:03;;;;;;;4.63;2.08;;;;;;;21.23;54.62;101517.31;5002772;28;20042;-69
2022/06/10 09:20:39;;;;;;;8.68;2.60;;;;;;;21.37;54.04;101527.06;4995129;28;20042;-69
2022/06/10 09:23:17;;;;;;;7.47;2.90;;;;;;;21.43;54.21;101523.53;4997314;28;20102;-72
2022/06/10 09:25:49;;;;;;;6.82;2.30;;;;;;;21.28;54.33;101526.47;5004683;28;20133;-69
2022/06/10 09:28:17;;;;;;;3.30;2.20;;;;;;;21.20;53.89;101523.16;4998352;28;20045;-71
2022/06/10 09:30:51;;;;;;;;;;;;;;;21.29;54.46;101533.56;4997083;28;20101;-72
2022/06/10 09:33:34;;;;;;;4.90;2.33;;;;;;;21.27;54.04;101530.25;4995995;28;19944;-71
2022/06/10 09:36:14;;;;;;;2.58;2.20;;;;;;;21.27;53.00;101518.56;4993302;28;20128;-71
2022/06/10 09:38:51;;;;;;;6.07;2.30;;;;;;;21.24;52.99;101519.84;4993701;28;20030;-71
2022/06/10 09:41:58;;;;;;;2.45;1.92;;;;;;;21.31;52.74;101531.47;4992841;28;20030;-69
2022/06/10 09:44:24;;;;;;;2.55;1.77;;;;;;;21.17;52.31;101527.13;4993141;28;20053;-72
2022/06/10 09:47:28;;;;;;;3.00;1.98;;;;;;;21.04;52.73;101514.44;4994562;28;20070;-67
2022/06/10 09:50:09;;;;;;;9.50;2.28;;;;;;;21.14;52.93;101529.44;4993652;28;20132;-62
2022/06/10 09:52:48;;;;;;;4.60;2.95;;;;;;;21.18;53.17;101533.38;4993876;28;20041;-63
2022/06/10 09:55:35;;;;;;;9.05;3.03;;;;;;;21.29;52.28;101528.16;4993577;28;20042;-64
2022/06/10 09:58:18;;;;;;;2.37;1.53;;;;;;;21.09;52.65;101519.22;4994029;28;20082;-67
2022/06/10 10:01:03;;;;;;;1.52;1.23;;;;;;;21.23;52.36;101523.59;4994225;28;20796;-62
2022/06/10 10:03:38;;;;;;;6.68;2.20;;;;;;;21.42;51.60;101534.56;4994901;28;20034;-62
2022/06/10 10:06:21;;;;;;;4.25;2.95;;;;;;;21.43;50.84;101537.06;4993165;28;20080;-65
2022/06/10 10:09:00;;;;;;;5.95;2.60;;;;;;;21.45;51.39;101536.84;4993346;28;20052;-62
2022/06/10 10:11:34;;;;;;;4.43;2.13;;;;;;;21.53;51.42;101534.72;4993317;28;20053;-61
2022/06/10 10:14:24;;;;;;;3.92;1.63;;;;;;;21.65;50.68;101543.81;4992700;28;20041;-61
2022/06/10 10:17:03;;;;;;;5.93;2.28;;;;;;;21.90;50.51;101538.47;4993017;28;20034;-61
2022/06/10 10:19:29;;;;;;;7.15;2.65;;;;;;;22.00;49.68;101531.75;4993081;28;20396;-60
2022/06/10 10:22:00;;;;;;;3.97;1.60;;;;;;;22.01;48.76;101530.69;4992806;28;20128;-63
2022/06/10 10:24:26;;;;;;;2.40;1.83;;;;;;;21.96;49.57;101524.03;4992569;28;20045;-62
2022/06/10 10:26:52;;;;;;;6.15;1.80;;;;;;;21.93;50.05;101535.31;4992713;28;20556;-60
2022/06/10 10:29:36;;;;;;;6.13;2.30;;;;;;;21.93;48.54;101537.19;4991159;28;20034;-62
2022/06/10 10:32:01;;;;;;;4.85;2.33;;;;;;;21.84;49.98;101525.78;4991633;28;20065;-68
2022/06/10 10:34:34;;;;;;;2.78;2.40;;;;;;;21.70;49.67;101526.09;4992479;28;20074;-64
2022/06/10 10:37:04;;;;;;;7.55;2.78;;;;;;;21.67;49.41;101529.22;4992720;28;20038;-66
2022/06/10 10:39:36;;;;;;;4.80;2.17;;;;;;;21.64;48.04;101536.72;4991671;28;20065;-64
2022/06/10 10:42:16;;;;;;;2.80;2.22;;;;;;;21.37;48.76;101512.69;4992205;28;20093;-66
2022/06/10 10:44:47;;;;;;;3.08;1.90;;;;;;;21.50;48.61;101534.31;4992671;28;20057;-67
2022/06/10 10:47:12;;;;;;;3.65;2.05;;;;;;;21.52;48.92;101532.22;4992382;28;20137;-66
2022/06/10 10:49:47;;;;;;;6.45;2.40;;;;;;;21.65;49.73;101537.56;4992511;28;20552;-65
2022/06/10 10:52:27;;;;;;;5.18;2.40;;;;;;;21.63;49.79;101515.25;4992235;28;20045;-65
2022/06/10 10:54:59;;;;;;;1.23;1.08;;;;;;;21.58;49.01;101509.66;4992685;28;20125;-67
2022/06/10 10:57:35;;;;;;;7.57;2.20;;;;;;;21.61;49.11;101495.69;4990941;28;20513;-68
2022/06/10 11:00:10;;;;;;;5.45;1.65;;;;;;;21.81;48.04;101503.69;4992501;28;20517;-62
2022/06/10 11:02:42;;;;;;;7.85;4.35;;;;;;;21.66;46.69;101514.81;4992163;28;20104;-59
2022/06/10 11:05:22;;;;;;;10.57;5.47;;;;;;;21.50;47.06;101524.31;4990964;28;20500;-61
2022/06/10 11:08:10;;;;;;;5.40;3.25;;;;;;;21.16;47.44;101500.25;4992431;28;20088;-62
2022/06/10 11:10:49;;;;;;;6.90;2.97;;;;;;;21.28;48.32;101512.94;4992064;28;20035;-61
2022/06/10 11:13:20;;;;;;;3.47;1.40;;;;;;;21.41;47.67;101535.63;4991786;28;20066;-63
2022/06/10 11:15:48;;;;;;;3.47;2.42;;;;;;;21.41;47.57;101531.03;4992251;28;20034;-61
2022/06/10 11:18:14;;;;;;;4.38;2.42;;;;;;;21.30;46.78;101518.16;4990978;28;20370;-60
2022/06/10 11:20:40;;;;;;;4.82;2.17;;;;;;;21.22;47.35;101538.16;4992115;28;20114;-60
2022/06/10 11:23:27;;;;;;;5.38;1.73;;;;;;;21.25;47.63;101532.34;4990835;28;20034;-62
2022/06/10 11:26:11;;;;;;;5.13;1.52;;;;;;;21.37;47.52;101523.53;4992087;28;20092;-61
2022/06/10 11:28:40;;;;;;;3.08;1.90;;;;;;;21.49;47.49;101533.50;4992696;28;20046;-61
2022/06/10 11:31:23;;;;;;;6.28;2.83;;;;;;;21.52;46.93;101526.81;4994894;28;20405;-71
2022/06/10 11:33:53;;;;;;;12.40;3.80;;;;;;;21.50;47.43;101521.59;4994522;28;20038;-62
2022/06/10 11:36:28;;;;;;;5.32;2.47;;;;;;;21.49;47.38;101533.50;4995327;28;20042;-67
2022/06/10 11:39:14;;;;;;;6.05;2.53;;;;;;;21.34;47.59;101517.50;4996655;28;20050;-67
2022/06/10 11:41:40;;;;;;;2.92;2.10;;;;;;;21.04;47.97;101519.03;5004194;28;20031;-66
2022/06/10 11:44:15;;;;;;;2.50;1.58;;;;;;;21.01;48.79;101508.63;4996875;28;20038;-65
2022/06/10 11:46:51;;;;;;;8.57;1.85;;;;;;;21.03;48.59;101511.97;4994745;28;20038;-72
2022/06/10 11:49:30;;;;;;;5.07;2.08;;;;;;;21.11;49.39;101510.91;4995353;28;20062;-62
2022/06/10 11:52:28;;;;;;;2.72;1.40;;;;;;;21.26;47.52;101539.41;4994843;28;20042;-67
2022/06/10 11:55:03;;;;;;;4.72;2.15;;;;;;;21.12;47.38;101531.53;4993757;28;20050;-68
2022/06/10 12:00:44;;;;;;;2.30;1.40;;;;;;;20.98;46.86;101514.47;4995300;28;20576;-68
2022/06/10 12:03:23;;;;;;;2.45;1.50;;;;;;;21.02;47.39;101542.78;4995580;28;20477;-68
2022/06/10 12:06:05;;;;;;;7.75;2.40;;;;;;;20.92;46.55;101542.41;4999037;28;20378;-66
2022/06/10 12:08:39;;;;;;;9.25;2.28;;;;;;;20.92;47.22;101531.59;4995685;28;20125;-70
2022/06/10 12:11:11;;;;;;;8.40;2.28;;;;;;;20.95;47.22;101539.28;4995199;28;20037;-67
2022/06/10 12:13:44;;;;;;;5.63;2.00;;;;;;;20.67;47.14;101497.06;4995051;28;20030;-71